Terminal Aerodrome Forecast
Issued by NWS

Home | Current Version | Previous Version | Graphics & Text | Print | Product List | Glossary On
Versions: 1 2 3 4 5 6 7 8 9 10 11 12 13 14 15 16 17 18
211
FTUS43 KGRB 041129
TAFATW
TAF
KATW 041129Z 0412/0512 26007KT P6SM BKN040
      TEMPO 0413/0417 SCT040
     FM041700 24006KT P6SM SCT040 BKN100
     FM042200 21005KT P6SM -SN BKN035
     FM050100 22004KT 3SM -SN OVC025
     FM050500 28005KT P6SM SCT025 BKN040=

USA.gov is the U.S. government's official web portal to all federal, state and local government web resources and services.